Time;durP1;ratioP1;P1;durP2;ratioP2;P2;SDS_P1;SDS_P2;PMS_P1;PMS_P2;Temp;Humidity;BMP_temperature;BMP_pressure;BME280_temperature;BME280_humidity;BME280_pressure;Samples;Min_cycle;Max_cycle;Signal;HPM_P1;HPM_P2
2022/06/09 00:01:15;;;;;;;3.13;2.93;;;;;;;22.30;100.00;98729.63;5092744;28;20199;-60
2022/06/09 00:03:48;;;;;;;3.27;2.70;;;;;;;22.28;100.00;98728.97;5093117;28;20199;-60
2022/06/09 00:06:16;;;;;;;2.60;2.40;;;;;;;22.22;100.00;98732.94;5093232;28;20211;-60
2022/06/09 00:08:47;;;;;;;2.93;2.83;;;;;;;22.20;100.00;98732.25;5092814;28;20195;-60
2022/06/09 00:11:25;;;;;;;2.87;2.70;;;;;;;22.20;100.00;98740.06;5093089;28;20192;-60
2022/06/09 00:13:53;;;;;;;2.80;2.70;;;;;;;22.10;100.00;98720.16;5091968;28;20241;-60
2022/06/09 00:16:21;;;;;;;3.63;3.00;;;;;;;22.10;100.00;98738.44;5093223;28;20233;-60
2022/06/09 00:18:48;;;;;;;3.10;3.00;;;;;;;22.08;100.00;98727.28;5093034;28;20610;-60
2022/06/09 00:21:15;;;;;;;2.80;2.70;;;;;;;22.03;100.00;98729.47;5092874;28;20195;-59
2022/06/09 00:23:42;;;;;;;3.23;3.13;;;;;;;22.01;100.00;98731.38;5092688;28;20219;-59
2022/06/09 00:26:09;;;;;;;3.00;2.90;;;;;;;22.02;100.00;98727.81;5092927;28;20207;-60
2022/06/09 00:28:37;;;;;;;2.70;2.57;;;;;;;22.03;100.00;98729.47;5092848;28;20678;-60
2022/06/09 00:31:04;;;;;;;2.60;2.50;;;;;;;22.00;100.00;98727.13;5092512;28;20210;-60
2022/06/09 00:33:30;;;;;;;2.73;2.60;;;;;;;21.99;100.00;98728.91;5092807;28;20760;-60
2022/06/09 00:35:57;;;;;;;2.63;2.53;;;;;;;21.86;100.00;98718.69;5092616;28;20215;-60
2022/06/09 00:38:25;;;;;;;3.00;2.80;;;;;;;21.92;100.00;98723.41;5092838;28;20316;-60
2022/06/09 00:40:51;;;;;;;2.87;2.77;;;;;;;21.97;100.00;98726.44;5092570;28;20632;-60
2022/06/09 00:43:18;;;;;;;3.60;3.40;;;;;;;21.96;100.00;98734.41;5092460;28;20199;-60
2022/06/09 00:45:50;;;;;;;3.00;2.80;;;;;;;21.93;100.00;98727.69;5092314;28;20273;-60
2022/06/09 00:48:35;;;;;;;2.80;2.70;;;;;;;21.81;100.00;98705.19;5092397;28;20200;-60
2022/06/09 00:51:10;;;;;;;2.20;2.10;;;;;;;21.92;100.00;98718.19;5091474;28;20320;-60
2022/06/09 00:53:39;;;;;;;2.77;2.67;;;;;;;21.92;100.00;98720.78;5091063;28;20223;-60
2022/06/09 00:56:09;;;;;;;2.60;2.50;;;;;;;21.80;100.00;98693.13;5091003;28;20663;-60
2022/06/09 00:58:39;;;;;;;2.83;2.50;;;;;;;21.92;100.00;98709.53;5091169;28;20217;-60
2022/06/09 01:01:11;;;;;;;2.10;2.00;;;;;;;21.92;100.00;98707.75;5092129;28;20222;-60
2022/06/09 01:03:41;;;;;;;2.20;2.10;;;;;;;21.77;100.00;98703.84;5092092;28;20195;-60
2022/06/09 01:06:18;;;;;;;3.00;2.73;;;;;;;21.80;100.00;98703.56;5091992;28;20205;-60
2022/06/09 01:08:54;;;;;;;2.70;2.60;;;;;;;21.74;100.00;98698.91;5091153;28;20609;-60
2022/06/09 01:11:21;;;;;;;2.63;2.47;;;;;;;21.79;100.00;98717.56;5090448;28;20245;-60
2022/06/09 01:13:48;;;;;;;2.47;2.37;;;;;;;21.72;100.00;98695.56;5090719;28;20265;-60
2022/06/09 01:16:24;;;;;;;2.70;2.60;;;;;;;21.85;100.00;98716.19;5090260;28;20670;-60
2022/06/09 01:19:02;;;;;;;2.27;2.17;;;;;;;21.81;100.00;98720.84;5090146;28;20199;-60
2022/06/09 01:22:05;;;;;;;2.13;2.03;;;;;;;21.75;100.00;98716.19;5090173;28;20195;-59
2022/06/09 01:25:09;;;;;;;2.20;2.10;;;;;;;21.74;100.00;98713.72;5088968;28;20583;-59
2022/06/09 01:27:55;;;;;;;2.20;2.07;;;;;;;21.65;100.00;98688.44;5056755;28;20201;-60
2022/06/09 01:30:39;;;;;;;2.27;2.17;;;;;;;21.72;100.00;98700.78;5091615;28;20209;-60
2022/06/09 01:33:13;;;;;;;1.90;1.67;;;;;;;21.71;100.00;98698.34;5089589;28;20230;-60
2022/06/09 01:35:45;;;;;;;3.53;2.00;;;;;;;21.71;100.00;98698.34;5091800;28;20199;-60
2022/06/09 01:38:12;;;;;;;2.07;1.97;;;;;;;21.73;100.00;98705.06;5091584;28;20260;-59
2022/06/09 01:40:38;;;;;;;2.50;2.30;;;;;;;21.72;100.00;98700.78;5091456;28;20202;-60
2022/06/09 01:43:06;;;;;;;2.20;2.10;;;;;;;21.62;100.00;98689.50;5091589;28;20275;-59
2022/06/09 01:45:38;;;;;;;3.20;2.50;;;;;;;21.70;100.00;98702.72;5091493;28;20195;-59
2022/06/09 01:48:08;;;;;;;2.20;2.10;;;;;;;21.67;100.00;98705.59;5091527;28;20260;-60
2022/06/09 01:50:39;;;;;;;2.53;2.33;;;;;;;21.59;100.00;98705.41;5091561;28;20590;-60
2022/06/09 01:53:10;;;;;;;2.90;2.37;;;;;;;21.54;100.00;98697.19;5089932;28;20298;-60
2022/06/09 01:55:51;;;;;;;3.33;3.20;;;;;;;21.40;100.00;98684.47;5090444;28;20195;-60
2022/06/09 01:58:23;;;;;;;2.30;2.20;;;;;;;21.49;100.00;98704.56;5091254;28;20609;-60
2022/06/09 02:00:54;;;;;;;3.50;2.50;;;;;;;21.50;100.00;98703.59;5091285;28;20232;-60
2022/06/09 02:03:24;;;;;;;3.00;2.83;;;;;;;21.51;100.00;98700.03;5090366;28;20191;-60
2022/06/09 02:05:54;;;;;;;2.37;2.27;;;;;;;21.52;100.00;98696.47;5091146;28;20202;-60
2022/06/09 02:08:24;;;;;;;2.20;2.10;;;;;;;21.54;100.00;98697.19;5091179;28;20199;-60
2022/06/09 02:10:55;;;;;;;2.43;2.30;;;;;;;21.54;100.00;98697.19;5091485;28;20210;-60
2022/06/09 02:13:26;;;;;;;2.87;2.73;;;;;;;21.52;100.00;98701.69;5090890;28;20215;-60
2022/06/09 02:16:00;;;;;;;3.20;3.10;;;;;;;21.49;100.00;98699.34;5090990;28;20210;-60
2022/06/09 02:18:30;;;;;;;3.60;3.40;;;;;;;21.49;100.00;98695.94;5091035;28;20707;-59
2022/06/09 02:21:02;;;;;;;4.77;3.53;;;;;;;21.49;100.00;98699.34;5091128;28;20206;-59
2022/06/09 02:23:29;;;;;;;3.37;3.17;;;;;;;21.45;100.00;98703.19;5090702;28;20191;-60
2022/06/09 02:25:56;;;;;;;3.30;3.20;;;;;;;21.42;100.00;98704.25;5090922;28;20195;-60
2022/06/09 02:28:23;;;;;;;3.33;3.13;;;;;;;21.39;100.00;98703.69;5091125;28;20603;-60
2022/06/09 02:30:50;;;;;;;3.57;3.37;;;;;;;21.38;100.00;98697.66;5089535;28;20667;-60
2022/06/09 02:33:18;;;;;;;4.27;4.00;;;;;;;21.39;100.00;98695.84;5090936;28;20218;-60
2022/06/09 02:35:45;;;;;;;3.33;3.00;;;;;;;21.36;100.00;98696.13;5090994;28;20576;-59
2022/06/09 02:38:12;;;;;;;3.83;3.63;;;;;;;21.38;100.00;98694.22;5090837;28;20252;-60
2022/06/09 02:40:38;;;;;;;4.40;4.00;;;;;;;21.38;100.00;98686.41;5090763;28;20217;-60
2022/06/09 02:43:06;;;;;;;3.27;3.17;;;;;;;21.38;100.00;98696.84;5089874;28;20199;-60
2022/06/09 02:45:33;;;;;;;4.07;3.77;;;;;;;21.36;100.00;98698.72;5090768;28;20199;-60
2022/06/09 02:48:00;;;;;;;4.47;4.17;;;;;;;21.28;100.00;98695.97;5090542;28;20293;-59
2022/06/09 02:50:28;;;;;;;6.40;3.57;;;;;;;21.18;100.00;98700.31;5090154;28;20199;-60
2022/06/09 02:52:55;;;;;;;2.97;2.87;;;;;;;21.12;100.00;98695.63;5089675;28;20226;-60
2022/06/09 02:55:22;;;;;;;2.90;2.80;;;;;;;21.07;100.00;98697.72;5087012;28;20218;-60
2022/06/09 02:57:49;;;;;;;3.20;3.07;;;;;;;21.02;100.00;98694.69;5089051;28;20712;-60
2022/06/09 03:00:16;;;;;;;3.23;3.13;;;;;;;20.98;100.00;98690.69;5090178;28;20692;-60
2022/06/09 03:02:43;;;;;;;2.90;2.80;;;;;;;20.94;100.00;98688.34;5090073;28;20281;-60
2022/06/09 03:05:11;;;;;;;2.97;2.87;;;;;;;20.92;100.00;98690.25;5090544;28;20203;-60
2022/06/09 03:07:39;;;;;;;2.77;2.67;;;;;;;20.92;100.00;98698.09;5090510;28;20252;-60
2022/06/09 03:10:06;;;;;;;3.53;3.33;;;;;;;20.87;100.00;98691.63;5089948;28;20552;-60
2022/06/09 03:12:33;;;;;;;4.70;3.40;;;;;;;20.90;100.00;98691.34;5090255;28;20663;-60
2022/06/09 03:15:00;;;;;;;3.50;3.30;;;;;;;20.91;100.00;98696.41;5094218;28;20252;-59
2022/06/09 03:17:27;;;;;;;3.23;3.03;;;;;;;20.92;100.00;98700.69;5094323;28;20202;-60
2022/06/09 03:19:54;;;;;;;3.30;3.10;;;;;;;20.94;100.00;98693.56;5094089;28;20192;-60
2022/06/09 03:22:22;;;;;;;3.20;3.00;;;;;;;21.00;100.00;98696.63;5093913;28;20196;-60
2022/06/09 03:24:50;;;;;;;5.63;2.80;;;;;;;21.02;100.00;98703.34;5093850;28;20217;-60
2022/06/09 03:27:16;;;;;;;2.50;2.30;;;;;;;21.06;100.00;98701.31;5093355;28;20202;-60
2022/06/09 03:29:43;;;;;;;3.90;3.70;;;;;;;21.08;100.00;98704.59;5093823;28;20196;-60
2022/06/09 03:32:10;;;;;;;3.27;3.07;;;;;;;21.09;100.00;98703.66;5094011;28;20653;-60
2022/06/09 03:34:37;;;;;;;2.63;2.40;;;;;;;21.09;100.00;98701.91;5093602;28;20718;-60
2022/06/09 03:37:04;;;;;;;3.07;2.87;;;;;;;21.10;100.00;98700.13;5093972;28;20559;-60
2022/06/09 03:39:31;;;;;;;2.83;2.73;;;;;;;21.05;100.00;98694.44;5093935;28;20663;-60
2022/06/09 03:41:59;;;;;;;3.37;2.77;;;;;;;21.07;100.00;98688.13;5093453;28;20196;-60
2022/06/09 03:44:26;;;;;;;3.10;2.90;;;;;;;21.14;100.00;98698.91;5091118;28;20193;-60
2022/06/09 03:46:53;;;;;;;3.30;3.20;;;;;;;21.16;100.00;98697.00;5093843;28;20674;-60
2022/06/09 03:49:19;;;;;;;3.50;3.30;;;;;;;21.17;100.00;98701.25;5092894;28;20207;-60
2022/06/09 03:51:46;;;;;;;3.50;3.20;;;;;;;21.15;100.00;98695.34;5092418;28;20218;-61
2022/06/09 03:54:14;;;;;;;3.57;3.30;;;;;;;21.16;100.00;98697.84;5093444;28;20221;-61
2022/06/09 03:56:41;;;;;;;3.67;3.47;;;;;;;21.12;100.00;98690.41;5093456;28;20195;-61
2022/06/09 03:59:10;;;;;;;3.93;3.73;;;;;;;21.11;100.00;98704.38;5090903;28;20199;-61
2022/06/09 04:01:37;;;;;;;3.40;3.20;;;;;;;21.10;100.00;98710.56;5093134;28;20199;-61
2022/06/09 04:04:04;;;;;;;3.53;3.30;;;;;;;21.04;100.00;98708.41;5093138;28;20667;-61
2022/06/09 04:06:31;;;;;;;3.93;3.63;;;;;;;21.04;100.00;98709.25;5093191;28;20202;-61
2022/06/09 04:08:59;;;;;;;3.80;3.43;;;;;;;21.07;100.00;98702.94;5093127;28;20690;-61
2022/06/09 04:11:26;;;;;;;4.60;3.60;;;;;;;21.09;100.00;98708.88;5091941;28;20195;-61
2022/06/09 04:13:52;;;;;;;3.87;3.67;;;;;;;21.15;100.00;98703.16;5092796;28;20233;-61
2022/06/09 04:16:25;;;;;;;4.63;4.43;;;;;;;21.11;100.00;98691.34;5093176;28;20191;-61
2022/06/09 04:18:52;;;;;;;4.67;4.27;;;;;;;21.23;100.00;98704.16;5093312;28;20206;-61
2022/06/09 04:21:19;;;;;;;3.90;3.70;;;;;;;21.31;100.00;98701.75;5091583;28;20203;-61
2022/06/09 04:23:46;;;;;;;4.43;4.23;;;;;;;21.41;100.00;98709.63;5092551;28;20211;-61
2022/06/09 04:26:16;;;;;;;4.43;4.13;;;;;;;21.47;100.00;98706.47;5092031;28;20195;-61
2022/06/09 04:28:42;;;;;;;4.73;4.40;;;;;;;21.51;100.00;98702.66;5092583;28;20696;-61
2022/06/09 04:31:10;;;;;;;6.10;4.63;;;;;;;21.59;100.00;98700.19;5092912;28;20202;-61
2022/06/09 04:33:38;;;;;;;4.63;4.43;;;;;;;21.62;100.00;98699.09;5092513;28;20208;-61
2022/06/09 04:36:06;;;;;;;5.13;4.70;;;;;;;21.63;100.00;98691.16;5090355;28;20196;-61
2022/06/09 04:38:35;;;;;;;4.67;4.30;;;;;;;21.63;100.00;98701.59;5092668;28;20231;-61
2022/06/09 04:41:03;;;;;;;4.63;4.20;;;;;;;21.57;100.00;98691.69;5092246;28;20195;-61
2022/06/09 04:43:30;;;;;;;4.00;3.70;;;;;;;21.60;100.00;98699.25;5092514;28;20192;-61
2022/06/09 04:45:57;;;;;;;4.33;3.57;;;;;;;21.62;100.00;98704.31;5091661;28;20206;-60
2022/06/09 04:48:23;;;;;;;3.50;3.40;;;;;;;21.64;100.00;98708.47;5091557;28;20211;-61
2022/06/09 04:50:51;;;;;;;2.73;2.53;;;;;;;21.59;100.00;98704.59;5092225;28;20226;-61
2022/06/09 04:53:18;;;;;;;2.40;2.30;;;;;;;21.60;100.00;98707.06;5092543;28;20216;-61
2022/06/09 04:55:45;;;;;;;2.43;2.33;;;;;;;21.64;100.00;98698.03;5092405;28;20191;-61
2022/06/09 04:58:12;;;;;;;3.10;2.90;;;;;;;21.68;100.00;98704.63;5087650;28;20202;-61
2022/06/09 05:00:39;;;;;;;2.70;2.60;;;;;;;21.82;100.00;98712.09;5090020;28;20199;-61
2022/06/09 05:03:11;;;;;;;2.57;2.47;;;;;;;21.98;100.00;98716.81;5091871;28;20199;-61
2022/06/09 05:05:40;;;;;;;2.50;2.40;;;;;;;22.09;100.00;98723.72;5091852;28;20207;-61
2022/06/09 05:08:10;;;;;;;2.60;2.50;;;;;;;22.20;100.00;98727.00;5091823;28;20233;-61
2022/06/09 05:10:37;;;;;;;2.93;2.77;;;;;;;22.32;100.00;98725.13;5091988;28;20651;-61
2022/06/09 05:13:05;;;;;;;2.50;2.40;;;;;;;22.52;100.00;98721.53;5091825;28;20670;-61
2022/06/09 05:15:34;;;;;;;3.30;2.87;;;;;;;22.75;100.00;98727.31;5091853;28;20252;-61
2022/06/09 05:18:01;;;;;;;3.10;2.90;;;;;;;22.82;100.00;98729.25;5089123;28;20195;-62
2022/06/09 05:20:28;;;;;;;2.87;2.60;;;;;;;22.92;99.63;98727.47;5091678;28;20202;-61
2022/06/09 05:22:55;;;;;;;2.60;2.50;;;;;;;23.11;98.07;98733.59;5091641;28;20207;-61
2022/06/09 05:25:23;;;;;;;2.50;2.40;;;;;;;23.27;97.95;98728.59;5088656;28;20215;-61
2022/06/09 05:27:50;;;;;;;2.60;2.50;;;;;;;23.39;97.05;98724.88;5091453;28;20207;-61
2022/06/09 05:30:21;;;;;;;2.03;1.93;;;;;;;23.44;94.17;98730.53;5091760;28;20203;-61
2022/06/09 05:32:48;;;;;;;1.90;1.80;;;;;;;23.58;94.37;98730.06;5090534;28;20196;-61
2022/06/09 05:35:16;;;;;;;2.10;2.00;;;;;;;23.80;94.45;98731.47;5090790;28;20255;-61
2022/06/09 05:45:59;;;;;;;2.20;2.03;;;;;;;25.30;86.09;98727.94;5090469;28;20558;-61
2022/06/09 05:48:27;;;;;;;1.50;1.43;;;;;;;25.63;80.18;98731.56;5091535;28;20207;-61
2022/06/09 05:50:55;;;;;;;2.13;1.60;;;;;;;25.98;80.80;98725.28;5090930;28;20207;-61
2022/06/09 05:53:22;;;;;;;1.83;1.73;;;;;;;25.91;78.09;98725.13;5091104;28;20199;-61
2022/06/09 05:55:50;;;;;;;2.10;2.00;;;;;;;25.87;77.91;98723.81;5090982;28;20225;-61
2022/06/09 05:58:17;;;;;;;2.50;2.40;;;;;;;25.89;78.53;98729.72;5090756;28;20199;-61
2022/06/09 06:00:45;;;;;;;2.43;2.33;;;;;;;25.65;77.97;98719.13;5089744;28;20724;-61
2022/06/09 06:03:13;;;;;;;2.70;2.53;;;;;;;25.60;79.80;98721.41;5090841;28;20265;-62
2022/06/09 06:08:33;;;;;;;2.63;2.53;;;;;;;25.26;80.03;98724.00;5066057;28;20207;-61
2022/06/09 06:11:01;;;;;;;2.43;2.33;;;;;;;25.13;81.13;98723.59;5090921;28;20248;-61
2022/06/09 06:13:28;;;;;;;2.40;2.30;;;;;;;25.06;81.95;98718.13;5090998;28;20203;-61
2022/06/09 06:15:55;;;;;;;2.80;2.70;;;;;;;25.04;81.54;98714.81;5090839;28;20203;-61
2022/06/09 06:18:23;;;;;;;3.00;2.90;;;;;;;25.03;82.91;98717.63;5090702;28;20191;-61
2022/06/09 06:20:50;;;;;;;3.83;2.58;;;;;;;25.02;82.60;98719.41;5087555;28;20872;-62
2022/06/09 06:23:19;;;;;;;3.50;3.30;;;;;;;24.69;82.93;98725.34;5089839;28;20203;-63
2022/06/09 06:25:45;;;;;;;2.90;2.80;;;;;;;24.77;82.93;98728.03;5089818;28;20619;-63
2022/06/09 06:28:14;;;;;;;4.40;2.83;;;;;;;24.83;84.31;98711.72;5090624;28;20203;-63
2022/06/09 06:30:40;;;;;;;2.73;2.53;;;;;;;25.05;82.39;98711.22;5090806;28;20617;-63
2022/06/09 06:33:07;;;;;;;3.13;2.80;;;;;;;25.26;82.30;98716.13;5090828;28;20198;-63
2022/06/09 06:35:34;;;;;;;2.90;2.70;;;;;;;25.45;80.89;98715.91;5089319;28;20218;-63
2022/06/09 06:38:01;;;;;;;2.90;2.63;;;;;;;25.63;79.21;98715.81;5090699;28;20269;-62
2022/06/09 06:40:28;;;;;;;2.90;2.75;;;;;;;25.96;76.08;98712.34;5087054;28;20480;-65
2022/06/09 06:42:55;;;;;;;2.93;2.70;;;;;;;26.46;75.97;98708.84;5087660;28;20207;-61
2022/06/09 06:45:25;;;;;;;4.50;2.83;;;;;;;26.67;74.29;98711.81;5087030;28;20575;-61
2022/06/09 06:47:52;;;;;;;4.80;3.00;;;;;;;26.86;74.25;98711.50;5087332;28;20705;-66
2022/06/09 06:50:19;;;;;;;6.20;2.70;;;;;;;27.02;75.72;98711.47;5094448;28;20199;-62
2022/06/09 06:52:46;;;;;;;3.13;2.93;;;;;;;27.07;73.13;98714.44;5093524;28;20196;-61
2022/06/09 06:55:16;;;;;;;3.20;3.10;;;;;;;27.27;73.98;98701.72;5093785;28;20211;-62
2022/06/09 06:57:43;;;;;;;2.40;2.30;;;;;;;27.54;74.88;98711.88;5093318;28;20732;-62
2022/06/09 07:00:14;;;;;;;3.60;3.30;;;;;;;27.75;72.90;98713.94;5092960;28;20196;-62
2022/06/09 07:02:43;;;;;;;3.60;3.30;;;;;;;28.02;70.90;98708.19;5088000;28;20227;-63
2022/06/09 07:05:10;;;;;;;3.93;3.00;;;;;;;28.28;67.05;98705.25;5086586;28;20821;-63
2022/06/09 07:07:37;;;;;;;2.20;2.10;;;;;;;28.61;67.23;98708.47;5092597;28;20659;-60
2022/06/09 07:10:05;;;;;;;2.83;2.50;;;;;;;28.67;62.44;98705.16;5092051;28;20196;-70
2022/06/09 07:12:32;;;;;;;2.45;2.10;;;;;;;28.77;63.66;98705.72;5091023;28;20203;-69
2022/06/09 07:14:59;;;;;;;2.65;2.55;;;;;;;28.89;65.57;98709.56;5092064;28;20215;-66
2022/06/09 07:17:26;;;;;;;2.53;2.42;;;;;;;29.11;62.81;98703.41;5090476;28;20199;-60
2022/06/09 07:19:55;;;;;;;3.42;2.90;;;;;;;29.13;62.16;98703.25;5090328;28;20211;-59
2022/06/09 07:22:21;;;;;;;3.15;2.85;;;;;;;28.86;59.92;98703.81;5090079;28;20207;-58
2022/06/09 07:24:49;;;;;;;2.63;2.53;;;;;;;28.84;59.95;98696.09;5092320;28;20238;-58
2022/06/09 07:27:15;;;;;;;2.67;2.58;;;;;;;28.76;62.66;98690.88;5091456;28;20702;-58
2022/06/09 07:29:43;;;;;;;2.63;2.47;;;;;;;29.02;61.95;98693.94;5091570;28;20215;-59
2022/06/09 07:32:10;;;;;;;3.15;2.97;;;;;;;29.31;61.22;98697.63;5091499;28;20200;-64
2022/06/09 07:34:37;;;;;;;2.67;2.58;;;;;;;29.70;60.07;98693.69;5092437;28;20219;-62
2022/06/09 07:37:06;;;;;;;2.83;2.63;;;;;;;29.83;61.28;98687.75;5091609;28;20977;-60
2022/06/09 07:39:33;;;;;;;2.90;2.80;;;;;;;29.94;60.00;98689.94;5091894;28;20215;-59
2022/06/09 07:42:01;;;;;;;3.25;3.05;;;;;;;30.15;61.01;98682.00;5089841;28;20223;-59
2022/06/09 07:44:28;;;;;;;2.65;2.45;;;;;;;30.31;57.77;98686.22;5091249;28;20556;-63
2022/06/09 07:46:54;;;;;;;3.17;3.08;;;;;;;30.40;58.86;98682.50;5090525;28;20204;-65
2022/06/09 07:49:21;;;;;;;2.83;2.72;;;;;;;30.35;57.04;98682.22;5082572;28;20272;-63
2022/06/09 07:51:48;;;;;;;2.92;2.83;;;;;;;30.16;57.18;98688.94;5086759;28;20215;-63
2022/06/09 07:54:16;;;;;;;2.45;2.35;;;;;;;30.02;57.23;98692.44;5088955;28;20641;-65
2022/06/09 07:56:44;;;;;;;3.00;2.90;;;;;;;29.87;59.18;98694.31;5092114;28;20206;-66
2022/06/09 07:59:11;;;;;;;3.13;2.92;;;;;;;29.70;59.37;98690.22;5090511;28;20226;-60
2022/06/09 08:01:38;;;;;;;2.75;2.55;;;;;;;29.68;59.93;98689.59;5091083;28;20618;-59
2022/06/09 08:04:05;;;;;;;3.03;2.92;;;;;;;29.76;61.57;98686.03;5090334;28;20207;-61
2022/06/09 08:06:32;;;;;;;3.13;3.03;;;;;;;29.72;60.13;98684.75;5091730;28;20199;-61
2022/06/09 08:09:00;;;;;;;2.90;2.80;;;;;;;29.81;61.95;98681.81;5090127;28;20203;-61
2022/06/09 08:11:33;;;;;;;3.00;2.90;;;;;;;29.97;65.65;98673.69;5087152;28;20196;-60
2022/06/09 08:14:01;;;;;;;3.17;3.08;;;;;;;30.11;60.52;98670.16;5090227;28;20214;-61
2022/06/09 08:16:28;;;;;;;3.13;3.03;;;;;;;30.54;57.75;98683.41;5089663;28;20208;-61
2022/06/09 08:18:56;;;;;;;3.17;3.08;;;;;;;30.72;57.18;98681.16;5092355;28;20231;-62
2022/06/09 08:21:23;;;;;;;3.88;3.67;;;;;;;30.85;57.72;98683.06;5091760;28;20218;-61
2022/06/09 08:23:50;;;;;;;3.10;2.97;;;;;;;31.05;60.69;98684.88;5089271;28;20195;-61
2022/06/09 08:26:17;;;;;;;3.05;2.95;;;;;;;31.12;57.12;98680.44;5088103;28;20651;-61
2022/06/09 08:28:45;;;;;;;3.17;2.97;;;;;;;31.01;57.74;98678.34;5089287;28;20730;-60
2022/06/09 08:31:12;;;;;;;3.35;3.25;;;;;;;31.08;58.61;98671.22;5089439;28;20214;-61
2022/06/09 08:33:39;;;;;;;2.90;2.80;;;;;;;31.19;54.12;98673.34;5087063;28;20691;-61
2022/06/09 08:36:07;;;;;;;3.00;2.90;;;;;;;30.84;54.81;98666.38;5089037;28;20273;-61
2022/06/09 08:38:34;;;;;;;3.20;3.00;;;;;;;31.09;57.16;98659.63;5085748;28;20563;-62
2022/06/09 08:41:08;;;;;;;2.88;2.78;;;;;;;31.21;57.44;98655.41;5087291;28;20253;-61
2022/06/09 08:43:41;;;;;;;3.22;3.13;;;;;;;31.31;55.85;98655.06;5087304;28;20196;-61
2022/06/09 08:46:24;;;;;;;4.55;4.35;;;;;;;31.58;58.96;98642.78;5089570;28;20191;-61
2022/06/09 08:48:55;;;;;;;2.80;2.60;;;;;;;31.73;53.50;98643.44;5084887;28;20264;-61
2022/06/09 08:51:34;;;;;;;2.97;2.83;;;;;;;31.74;56.34;98642.44;5087475;28;20199;-61
2022/06/09 08:54:09;;;;;;;2.97;2.88;;;;;;;31.60;55.94;98630.97;5089921;28;20264;-62
2022/06/09 08:56:37;;;;;;;3.50;3.28;;;;;;;31.63;55.77;98624.47;5089211;28;20566;-62
2022/06/09 08:59:12;;;;;;;3.10;3.00;;;;;;;31.72;56.08;98629.41;5089737;28;20211;-61
2022/06/09 09:01:44;;;;;;;6.82;3.58;;;;;;;31.53;54.03;98634.63;5089022;28;20202;-61
2022/06/09 09:04:19;;;;;;;3.50;3.30;;;;;;;31.48;56.26;98621.13;5089142;28;20203;-62
2022/06/09 09:06:51;;;;;;;3.03;2.92;;;;;;;31.78;56.25;98619.00;5088514;28;20209;-62
2022/06/09 09:09:22;;;;;;;3.35;3.15;;;;;;;31.69;55.08;98586.56;5089360;28;20203;-62
2022/06/09 09:12:00;;;;;;;3.78;3.47;;;;;;;31.94;52.74;98622.09;5084136;28;20290;-61
2022/06/09 09:14:31;;;;;;;3.35;3.25;;;;;;;31.85;50.51;98612.72;5087727;28;20200;-61
2022/06/09 09:17:04;;;;;;;2.92;2.83;;;;;;;32.04;51.17;98606.66;5089794;28;20210;-61
2022/06/09 09:19:42;;;;;;;2.92;2.83;;;;;;;32.02;50.62;98606.00;5084136;28;20204;-61
2022/06/09 09:22:18;;;;;;;2.70;2.60;;;;;;;32.23;50.45;98605.84;5083414;28;20203;-61
2022/06/09 09:24:57;;;;;;;3.13;2.95;;;;;;;32.24;51.16;98607.50;5080669;28;20233;-61
2022/06/09 09:27:35;;;;;;;2.72;2.60;;;;;;;32.35;49.79;98614.00;5081079;28;20217;-61
2022/06/09 09:30:16;;;;;;;2.53;2.42;;;;;;;32.39;49.29;98609.09;5085756;28;20699;-61
2022/06/09 09:32:46;;;;;;;2.50;2.40;;;;;;;32.37;48.87;98609.34;5081149;28;20204;-62
2022/06/09 09:35:19;;;;;;;2.63;2.53;;;;;;;32.62;49.98;98606.88;5082067;28;20222;-62
2022/06/09 09:37:48;;;;;;;2.80;2.70;;;;;;;32.54;52.05;98601.75;5082008;28;20629;-61
2022/06/09 09:40:21;;;;;;;2.47;2.38;;;;;;;32.76;47.00;98596.03;5081423;28;20204;-62
2022/06/09 09:42:50;;;;;;;1.83;1.73;;;;;;;32.69;45.90;98599.75;5080616;28;20560;-62
2022/06/09 09:45:20;;;;;;;2.53;2.40;;;;;;;32.63;47.63;98585.47;5078193;28;20208;-62
2022/06/09 09:47:51;;;;;;;3.22;2.45;;;;;;;32.27;47.23;98585.03;5079310;28;20200;-62
2022/06/09 09:50:29;;;;;;;2.78;2.67;;;;;;;32.15;46.12;98586.69;5084533;28;20564;-62
2022/06/09 09:53:00;;;;;;;3.83;2.70;;;;;;;32.22;49.52;98582.16;5084603;28;20724;-62
2022/06/09 09:55:33;;;;;;;3.00;2.80;;;;;;;32.06;46.10;98572.78;5082978;28;20219;-61
2022/06/09 09:58:16;;;;;;;2.88;2.67;;;;;;;32.02;47.31;98566.22;5085781;28;21071;-61
2022/06/09 10:00:44;;;;;;;2.58;2.47;;;;;;;31.96;49.46;98559.06;5089299;28;20207;-61
2022/06/09 10:08:53;;;;;;;2.92;2.83;;;;;;;31.95;52.28;98560.13;5088716;28;20256;-60
2022/06/09 10:14:36;;;;;;;3.17;3.05;;;;;;;31.64;52.43;98551.91;5086170;28;20284;-62
2022/06/09 10:17:08;;;;;;;3.70;3.50;;;;;;;31.02;52.81;98557.38;5088295;28;20196;-62
2022/06/09 10:19:36;;;;;;;2.97;2.88;;;;;;;30.98;54.25;98548.19;5089842;28;20211;-61
2022/06/09 10:22:16;;;;;;;4.30;3.42;;;;;;;31.07;53.08;98545.19;5089478;28;20214;-62
2022/06/09 10:24:48;;;;;;;3.33;3.13;;;;;;;30.94;54.15;98542.44;5090553;28;20658;-60
2022/06/09 10:27:18;;;;;;;3.10;3.00;;;;;;;30.94;53.91;98534.50;5089143;28;20693;-61
2022/06/09 10:29:51;;;;;;;3.30;3.10;;;;;;;30.80;51.38;98539.91;5093937;28;20286;-60
2022/06/09 10:32:22;;;;;;;4.05;3.50;;;;;;;30.97;53.44;98544.72;5093067;28;20612;-63
2022/06/09 10:34:59;;;;;;;3.42;3.22;;;;;;;31.04;52.12;98529.69;5089520;28;20204;-62
2022/06/09 10:37:40;;;;;;;3.10;3.00;;;;;;;30.88;51.45;98524.69;5090878;28;20662;-62
2022/06/09 10:40:15;;;;;;;3.00;2.90;;;;;;;30.86;52.12;98526.72;5092690;28;20731;-60
2022/06/09 10:42:50;;;;;;;2.50;2.40;;;;;;;30.72;52.55;98519.72;5092075;28;20195;-61
2022/06/09 10:45:26;;;;;;;2.80;2.70;;;;;;;30.60;53.72;98521.25;5092983;28;20282;-60
2022/06/09 10:56:46;;;;;;;2.80;2.70;;;;;;;29.51;56.89;98498.81;5093200;28;20326;-59
2022/06/09 10:59:18;;;;;;;3.13;2.92;;;;;;;29.32;56.86;98482.75;5094087;28;20195;-60
2022/06/09 11:01:45;;;;;;;3.80;3.60;;;;;;;29.36;57.71;98484.03;5094279;28;20287;-61
2022/06/09 11:04:16;;;;;;;3.47;3.30;;;;;;;29.57;57.28;98476.09;5094317;28;20202;-61
2022/06/09 11:06:58;;;;;;;3.20;3.08;;;;;;;29.59;57.94;98468.81;5093390;28;20192;-61
2022/06/09 11:09:30;;;;;;;3.63;3.33;;;;;;;29.56;58.18;98466.56;5091993;28;20208;-60
2022/06/09 11:12:10;;;;;;;2.95;2.85;;;;;;;29.53;60.53;98464.28;5092219;28;21679;-59
2022/06/09 11:15:00;;;;;;;3.40;3.10;;;;;;;29.60;58.51;98465.97;5091056;28;20203;-60
2022/06/09 11:17:40;;;;;;;2.97;2.88;;;;;;;29.69;55.41;98470.09;5086496;28;20208;-61
2022/06/09 11:20:21;;;;;;;3.10;3.00;;;;;;;29.85;54.80;98466.44;5085134;28;20204;-60
2022/06/09 11:22:58;;;;;;;2.75;2.65;;;;;;;29.92;54.39;98458.56;5090211;28;20574;-62
2022/06/09 11:25:42;;;;;;;2.83;2.72;;;;;;;29.87;55.39;98461.75;5090476;28;20718;-61
2022/06/09 11:28:23;;;;;;;3.78;3.58;;;;;;;29.75;56.14;98454.53;5091241;28;20231;-62
2022/06/09 11:31:05;;;;;;;3.38;3.17;;;;;;;30.06;56.07;98466.38;5091411;28;20203;-61
2022/06/09 11:33:50;;;;;;;3.65;3.45;;;;;;;30.24;55.50;98457.16;5088549;28;20719;-61
2022/06/09 11:36:23;;;;;;;3.97;3.22;;;;;;;30.15;54.08;98454.66;5090271;28;20632;-62
2022/06/09 11:39:01;;;;;;;3.17;2.97;;;;;;;30.12;55.71;98459.50;5089348;28;20203;-61
2022/06/09 11:41:40;;;;;;;3.25;3.15;;;;;;;30.32;55.45;98456.97;5087861;28;20682;-62
2022/06/09 11:44:17;;;;;;;3.35;3.15;;;;;;;30.12;54.07;98460.31;5091124;28;20199;-61
2022/06/09 11:46:45;;;;;;;2.78;2.67;;;;;;;29.96;54.63;98460.63;5089681;28;20213;-60
2022/06/09 11:49:19;;;;;;;2.90;2.80;;;;;;;30.02;55.35;98451.91;5090854;28;20206;-62
2022/06/09 11:51:48;;;;;;;2.70;2.50;;;;;;;29.88;55.26;98463.41;5089557;28;20198;-59
2022/06/09 11:54:38;;;;;;;4.38;2.88;;;;;;;29.52;53.94;98462.66;5088805;28;20203;-61
2022/06/09 11:57:45;;;;;;;2.50;2.40;;;;;;;29.48;55.05;98466.66;5087455;28;20231;-62
2022/06/09 12:00:40;;;;;;;3.13;2.88;;;;;;;29.50;54.62;98469.97;5079781;28;20199;-61
2022/06/09 12:03:34;;;;;;;9.05;7.57;;;;;;;29.63;54.56;98478.81;5083797;28;20578;-60
2022/06/09 12:06:11;;;;;;;3.65;3.45;;;;;;;29.31;55.09;98470.56;5088293;28;20210;-64
2022/06/09 12:08:48;;;;;;;3.13;2.83;;;;;;;29.51;55.19;98469.75;5089925;28;20544;-64
2022/06/09 12:11:18;;;;;;;2.85;2.65;;;;;;;29.67;53.90;98471.31;5087717;28;20229;-63
2022/06/09 12:14:10;;;;;;;2.85;2.65;;;;;;;29.74;57.10;98464.28;5090680;28;20568;-59